Thursday, September 20, 2018, 10:29 PM EDT
Back to Local

KTTN, Trenton Mercer County Airport

Location: Trenton, NJ, United States Lat: 40.283
Local Time: 10:29 PM EDT ( 2:29 GMT) Lon: -74.817
Time Zone: US/Eastern Elev: 213 ft

Show me the last for .
Show Decoded

2018-09-20 21:53 METAR KTTN 210153Z 15005KT 10SM FEW033 BKN055 19/16 A3025 RMK AO2 SLP236
                 T01890156 =
2018-09-20 20:53 METAR KTTN 210053Z 14010KT 10SM FEW034 OVC050 19/16 A3023 RMK AO2 SLP229
                 T01940156 =
2018-09-20 19:53 METAR KTTN 202353Z 15008KT 10SM SCT030 OVC048 20/16 A3023 RMK AO2 SLP229
                 T02000156 10222 20200 53007 =
2018-09-20 19:17 METAR KTTN 202317Z 13008KT 10SM OVC029 21/16 A3022 RMK AO2 T02060156 =
2018-09-20 19:01 METAR KTTN 202301Z 13008KT 10SM BKN030 OVC050 21/16 A3022 RMK AO2 T02060161 =
2018-09-20 18:53 METAR KTTN 202253Z 12009KT 10SM OVC028 21/16 A3021 RMK AO2 SLP224 T02060161 =
2018-09-20 18:03 METAR KTTN 202203Z 13008KT 10SM BKN027 OVC050 22/16 A3021 RMK AO2 T02170161 =
2018-09-20 17:53 METAR KTTN 202153Z 14005KT 10SM SCT027 SCT031 OVC050 22/17 A3021 RMK AO2 SLP222
                 T02170167 =
2018-09-20 16:53 METAR KTTN 202053Z 17006KT 10SM SCT028 OVC036 22/16 A3020 RMK AO2 SLP221
                 T02220161 55001 =
2018-09-20 16:51 METAR KTTN 202051Z 16005KT 10SM SCT026 OVC036 22/17 A3020 RMK AO2 =
2018-09-20 15:53 METAR KTTN 201953Z 13006KT 10SM OVC027 22/16 A3020 RMK AO2 SLP221 T02220161 =
2018-09-20 14:53 METAR KTTN 201853Z 10005KT 10SM OVC023 22/16 A3021 RMK AO2 SLP222 T02170161 =
2018-09-20 13:53 METAR KTTN 201753Z 12005KT 10SM OVC025 21/16 A3022 RMK AO2 SLP226 T02110161
                 10217 20189 58003 =
2018-09-20 12:53 METAR KTTN 201653Z 13005KT 10SM OVC024 21/16 A3023 RMK AO2 SLP230 T02110156 =
2018-09-20 11:53 METAR KTTN 201553Z 08005KT 10SM BKN022 OVC036 21/16 A3024 RMK AO2 SLP233
                 T02110161 =
2018-09-20 10:53 METAR KTTN 201453Z 13005KT 10SM BKN020 OVC029 21/16 A3023 RMK AO2 SLP229
                 T02060161 51018 =
2018-09-20 09:53 METAR KTTN 201353Z 10004KT 10SM OVC018 19/16 A3022 RMK AO2 SLP226 T01940156 =
2018-09-20 08:53 METAR KTTN 201253Z 10007KT 10SM OVC020 19/16 A3020 RMK AO2 SLP220 T01940156 =
2018-09-20 07:53 METAR KTTN 201153Z 09006KT 10SM OVC021 19/16 A3018 RMK AO2 SLP211 T01890156
                 10206 20189 51029 =
2018-09-20 06:53 METAR KTTN 201053Z 11006KT 10SM OVC019 19/16 A3015 RMK AO2 SLP203 T01890156 =
2018-09-20 06:43 METAR KTTN 201043Z 11008KT 10SM OVC017 19/16 A3015 RMK AO2 T01890156 =
2018-09-20 05:53 METAR KTTN 200953Z 11008KT 10SM OVC013 19/17 A3011 RMK AO2 SLP191 T01940167 =
2018-09-20 05:26 METAR KTTN 200926Z AUTO 12007KT 10SM OVC015 20/17 A3010 RMK AO2 T02000172 =
2018-09-20 05:03 METAR KTTN 200903Z AUTO 11008KT 10SM OVC014 20/17 A3009 RMK AO2 T02000172 =
2018-09-20 04:53 METAR KTTN 200853Z AUTO 12006KT 10SM OVC015 20/17 A3009 RMK AO2 SLP181 T02000172
                 53006 =
2018-09-20 04:01 METAR KTTN 200801Z AUTO 12007KT 10SM OVC012 20/18 A3008 RMK AO2 T02000178 =
2018-09-20 03:53 METAR KTTN 200753Z AUTO 12009KT 10SM OVC015 20/18 A3008 RMK AO2 SLP177 T02000178
                 =
2018-09-20 03:49 METAR KTTN 200749Z AUTO 11008KT 10SM OVC015 20/18 A3008 RMK AO2 =
2018-09-20 02:53 METAR KTTN 200653Z AUTO 11006KT 10SM OVC012 21/18 A3007 RMK AO2 SLP175 T02060183
                 =
2018-09-20 02:42 METAR KTTN 200642Z AUTO 12005KT 10SM BKN012 OVC019 21/19 A3007 RMK AO2 T02110189
                 =
2018-09-20 01:53 METAR KTTN 200553Z AUTO 12005KT 10SM BKN015 OVC029 21/19 A3007 RMK AO2 SLP175
                 T02110189 10233 20211 53006 =
2018-09-20 01:46 METAR KTTN 200546Z AUTO 13005KT 10SM BKN015 OVC029 21/19 A3007 RMK AO2 T02110189
                 =
2018-09-20 00:53 METAR KTTN 200453Z AUTO 11005KT 10SM BKN014 BKN019 OVC042 21/19 A3006 RMK AO2
                 SLP171 T02110189 402890189 =
2018-09-20 00:49 METAR KTTN 200449Z AUTO 12006KT 10SM BKN014 BKN019 OVC042 22/19 A3006 RMK AO2 =
2018-09-20 00:25 METAR KTTN 200425Z AUTO 08004KT 10SM OVC015 22/19 A3006 RMK AO2 T02170194 =
2018-09-19 23:53 METAR KTTN 200353Z AUTO 11004KT 10SM BKN012 OVC034 22/19 A3005 RMK AO2 SLP168
                 T02170194 =
2018-09-19 22:53 METAR KTTN 200253Z AUTO 13005KT 10SM OVC012 22/19 A3004 RMK AO2 SLP166 T02220194
                 51026 =

Support USWX by starting your Amazon purchase here.